createdAt,value
2019-02-17T00:01:49.909Z,35.23
2019-02-17T00:03:51.718Z,37.37
2019-02-17T00:05:53.428Z,34.40
2019-02-17T00:07:55.427Z,35.10
2019-02-17T00:09:57.248Z,35.87
2019-02-17T00:11:59.177Z,32.87
2019-02-17T00:14:00.921Z,39.67
2019-02-17T00:16:02.860Z,35.57
2019-02-17T00:18:04.568Z,37.97
2019-02-17T00:20:08.125Z,29.97
2019-02-17T00:22:10.128Z,37.57
2019-02-17T00:24:11.885Z,38.03
2019-02-17T00:26:13.609Z,30.07
2019-02-17T00:28:15.353Z,36.63
2019-02-17T00:30:17.077Z,35.53
2019-02-17T00:32:18.795Z,36.83
2019-02-17T00:34:20.546Z,32.77
2019-02-17T00:36:22.249Z,34.83
2019-02-17T00:38:24.305Z,38.93
2019-02-17T00:40:26.132Z,41.40
2019-02-17T00:42:27.938Z,36.40
2019-02-17T00:44:29.766Z,32.70
2019-02-17T00:46:31.580Z,33.03
2019-02-17T00:48:33.285Z,37.73
2019-02-17T00:50:34.984Z,31.00
2019-02-17T00:52:36.817Z,31.00
2019-02-17T00:54:38.621Z,36.00
2019-02-17T00:56:40.383Z,38.97
2019-02-17T00:58:42.083Z,33.27
2019-02-17T01:00:43.788Z,34.70
2019-02-17T01:02:45.592Z,35.10
2019-02-17T01:04:47.297Z,34.53
2019-02-17T01:06:49.105Z,42.47
2019-02-17T01:08:50.939Z,35.43
2019-02-17T01:10:52.633Z,37.93
2019-02-17T01:12:54.346Z,32.47
2019-02-17T01:14:56.091Z,37.10
2019-02-17T01:16:57.814Z,37.57
2019-02-17T01:18:59.615Z,36.30
2019-02-17T01:21:01.429Z,33.40
2019-02-17T01:23:03.368Z,29.47
2019-02-17T01:25:05.802Z,30.23
2019-02-17T01:27:07.617Z,33.43
2019-02-17T01:29:09.372Z,34.33
2019-02-17T01:31:11.096Z,33.10
2019-02-17T01:33:13.019Z,36.90
2019-02-17T01:35:14.847Z,34.43
2019-02-17T01:37:16.561Z,34.50
2019-02-17T01:39:18.271Z,35.00
2019-02-17T01:41:19.984Z,29.00
2019-02-17T01:43:21.686Z,36.40
2019-02-17T01:45:23.510Z,30.73
2019-02-17T01:47:25.228Z,30.40
2019-02-17T01:49:27.043Z,35.27
2019-02-17T01:51:28.865Z,30.47
2019-02-17T01:53:30.828Z,36.90
2019-02-17T01:55:32.633Z,33.03
2019-02-17T01:57:34.442Z,35.47
2019-02-17T01:59:36.200Z,29.97
2019-02-17T02:01:37.884Z,30.77
2019-02-17T02:03:39.597Z,33.00
2019-02-17T02:05:41.445Z,29.57
2019-02-17T02:07:43.249Z,36.43
2019-02-17T02:09:45.060Z,30.60
2019-02-17T02:11:46.806Z,29.00
2019-02-17T02:13:48.508Z,32.70
2019-02-17T02:15:50.221Z,33.77
2019-02-17T02:17:52.137Z,33.90
2019-02-17T02:19:53.837Z,34.03
2019-02-17T02:21:55.545Z,33.70
2019-02-17T02:23:57.365Z,28.13
2019-02-17T02:25:59.188Z,31.47
2019-02-17T02:28:01.099Z,36.97
2019-02-17T02:30:03.838Z,31.80
2019-02-17T02:32:05.713Z,35.27
2019-02-17T02:34:07.454Z,31.80
2019-02-17T02:36:09.161Z,29.93
2019-02-17T02:38:10.865Z,27.07
2019-02-17T02:42:29.086Z,28.13
2019-02-17T02:44:30.789Z,34.37
2019-02-17T02:46:33.445Z,37.27
2019-02-17T02:48:35.149Z,28.30
2019-02-17T02:50:36.965Z,32.13
2019-02-17T02:52:38.694Z,26.20
2019-02-17T02:54:40.642Z,32.67
2019-02-17T02:56:42.357Z,29.63
2019-02-17T02:58:44.078Z,33.33
2019-02-17T03:00:45.816Z,31.77
2019-02-17T03:02:47.634Z,30.93
2019-02-17T03:04:52.473Z,27.73
2019-02-17T03:06:59.894Z,28.80
2019-02-17T03:09:01.987Z,29.13
2019-02-17T03:11:03.684Z,27.90
2019-02-17T03:13:05.705Z,24.97
2019-02-17T03:15:07.751Z,27.30
2019-02-17T03:17:09.461Z,32.10
2019-02-17T03:19:11.161Z,26.00
2019-02-17T03:21:12.860Z,28.53
2019-02-17T03:23:14.653Z,27.83
2019-02-17T03:25:16.351Z,28.60
2019-02-17T03:27:18.237Z,26.47
2019-02-17T03:29:19.942Z,29.20
2019-02-17T03:31:21.678Z,29.87
2019-02-17T03:33:24.205Z,29.60
2019-02-17T03:35:25.935Z,32.33
2019-02-17T03:37:27.643Z,26.77
2019-02-17T03:39:29.622Z,32.40
2019-02-17T03:41:31.649Z,31.50
2019-02-17T03:43:33.349Z,33.80
2019-02-17T03:45:35.054Z,30.93
2019-02-17T03:47:37.125Z,38.17
2019-02-17T03:49:38.816Z,31.60
2019-02-17T03:51:40.508Z,30.27
2019-02-17T03:53:42.248Z,32.60
2019-02-17T03:55:43.957Z,49.70
2019-02-17T03:57:45.680Z,36.30
2019-02-17T03:59:47.405Z,36.03
2019-02-17T04:01:49.237Z,37.60
2019-02-17T04:03:50.939Z,38.10
2019-02-17T04:05:52.668Z,37.20
2019-02-17T04:07:54.389Z,30.93
2019-02-17T04:09:56.109Z,29.90
2019-02-17T04:11:57.902Z,34.97
2019-02-17T04:13:59.704Z,40.63
2019-02-17T04:16:01.414Z,35.87
2019-02-17T04:18:03.138Z,34.20
2019-02-17T04:20:05.013Z,36.27
2019-02-17T04:22:06.701Z,41.97
2019-02-17T04:24:09.509Z,32.50
2019-02-17T04:26:11.256Z,33.87
2019-02-17T04:28:13.022Z,38.17
2019-02-17T04:30:14.745Z,41.97
2019-02-17T04:32:16.459Z,36.70
2019-02-17T04:34:18.181Z,40.40
2019-02-17T04:36:20.002Z,37.33
2019-02-17T04:38:21.713Z,32.80
2019-02-17T04:40:23.425Z,34.07
2019-02-17T04:42:25.243Z,31.77
2019-02-17T04:44:26.950Z,38.60
2019-02-17T04:46:28.649Z,35.40
2019-02-17T04:48:30.518Z,39.40
2019-02-17T04:50:32.221Z,31.80
2019-02-17T04:52:34.141Z,38.87
2019-02-17T04:54:35.888Z,34.47
2019-02-17T04:56:37.686Z,36.90
2019-02-17T04:58:39.490Z,38.33
2019-02-17T05:00:41.609Z,41.00
2019-02-17T05:02:43.520Z,46.83
2019-02-17T05:04:45.233Z,38.57
2019-02-17T05:06:46.931Z,43.27
2019-02-17T05:08:48.641Z,36.63
2019-02-17T05:10:50.358Z,36.03
2019-02-17T05:12:52.239Z,35.90
2019-02-17T05:14:53.940Z,33.57
2019-02-17T05:16:55.630Z,35.80
2019-02-17T05:18:57.701Z,36.03
2019-02-17T05:20:59.455Z,34.83
2019-02-17T05:23:01.182Z,41.27
2019-02-17T05:25:03.035Z,34.13
2019-02-17T05:27:04.841Z,45.40
2019-02-17T05:29:06.541Z,39.53
2019-02-17T05:31:08.526Z,43.73
2019-02-17T05:33:10.284Z,33.37
2019-02-17T05:35:12.081Z,37.00
2019-02-17T05:37:14.681Z,37.30
2019-02-17T05:39:16.384Z,40.17
2019-02-17T05:41:18.087Z,38.43
2019-02-17T05:43:19.914Z,37.77
2019-02-17T05:45:21.605Z,36.07
2019-02-17T05:47:23.337Z,37.37
2019-02-17T05:49:25.041Z,37.77
2019-02-17T05:51:26.757Z,59.50
2019-02-17T05:53:28.740Z,40.87
2019-02-17T05:55:30.445Z,35.23
2019-02-17T05:57:32.175Z,36.27
2019-02-17T05:59:33.949Z,36.87
2019-02-17T06:01:35.672Z,40.57
2019-02-17T06:03:37.379Z,37.23
2019-02-17T06:05:39.106Z,44.40
2019-02-17T06:07:40.831Z,44.73
2019-02-17T06:09:42.531Z,38.33
2019-02-17T06:11:44.265Z,42.40
2019-02-17T06:13:45.957Z,42.70
2019-02-17T06:15:47.657Z,38.80
2019-02-17T06:17:49.361Z,43.13
2019-02-17T06:19:51.305Z,44.73
2019-02-17T06:21:53.014Z,43.27
2019-02-17T06:23:54.710Z,43.63
2019-02-17T06:25:56.435Z,40.13
2019-02-17T06:27:58.275Z,59.77
2019-02-17T06:30:04.003Z,48.10
2019-02-17T06:32:05.785Z,47.87
2019-02-17T06:34:14.448Z,45.43
2019-02-17T06:36:16.359Z,41.67
2019-02-17T06:38:18.181Z,41.33
2019-02-17T06:40:19.901Z,48.03
2019-02-17T06:42:21.605Z,51.57
2019-02-17T06:44:23.366Z,39.30
2019-02-17T06:46:29.480Z,36.43
2019-02-17T06:48:31.403Z,43.23
2019-02-17T06:50:33.105Z,45.20
2019-02-17T06:52:34.866Z,46.57
2019-02-17T06:54:36.569Z,44.67
2019-02-17T06:56:59.655Z,47.73
2019-02-17T06:59:01.368Z,48.80
2019-02-17T07:01:03.108Z,45.43
2019-02-17T07:03:04.821Z,43.90
2019-02-17T07:05:16.465Z,47.73
2019-02-17T07:07:18.164Z,46.73
2019-02-17T07:09:19.984Z,45.97
2019-02-17T07:11:23.404Z,50.13
2019-02-17T07:13:25.281Z,49.70
2019-02-17T07:15:27.320Z,49.53
2019-02-17T07:17:29.037Z,53.33
2019-02-17T07:19:30.733Z,52.10
2019-02-17T07:21:32.463Z,48.10
2019-02-17T07:23:34.163Z,50.10
2019-02-17T07:25:35.885Z,52.17
2019-02-17T07:27:37.629Z,51.60
2019-02-17T07:29:39.328Z,51.90
2019-02-17T07:31:41.041Z,52.30
2019-02-17T07:33:43.012Z,56.80
2019-02-17T07:35:44.730Z,53.63
2019-02-17T07:37:46.453Z,53.90
2019-02-17T07:39:48.182Z,54.40
2019-02-17T07:41:49.881Z,55.60
2019-02-17T07:43:51.713Z,52.87
2019-02-17T07:45:53.578Z,51.80
2019-02-17T07:47:55.290Z,54.63
2019-02-17T07:49:57.166Z,58.87
2019-02-17T07:51:58.898Z,52.50
2019-02-17T07:54:00.592Z,52.97
2019-02-17T07:56:02.308Z,48.50
2019-02-17T07:58:04.338Z,53.83
2019-02-17T08:00:06.754Z,51.30
2019-02-17T08:02:08.464Z,58.63
2019-02-17T08:04:10.181Z,57.40
2019-02-17T08:06:11.896Z,56.00
2019-02-17T08:08:13.656Z,49.47
2019-02-17T08:10:15.376Z,54.30
2019-02-17T08:12:17.305Z,57.67
2019-02-17T08:14:19.330Z,56.00
2019-02-17T08:16:21.172Z,56.93
2019-02-17T08:18:22.932Z,54.93
2019-02-17T08:20:24.624Z,52.73
2019-02-17T08:22:26.461Z,51.70
2019-02-17T08:24:28.170Z,60.23
2019-02-17T08:26:29.958Z,54.20
2019-02-17T08:28:31.673Z,58.73
2019-02-17T08:30:33.470Z,53.83
2019-02-17T08:32:35.264Z,57.90
2019-02-17T08:34:37.464Z,60.03
2019-02-17T08:36:39.177Z,51.43
2019-02-17T08:38:40.901Z,55.90
2019-02-17T08:40:42.836Z,55.20
2019-02-17T08:42:44.557Z,52.17
2019-02-17T08:44:46.281Z,53.53
2019-02-17T08:46:48.070Z,62.20
2019-02-17T08:48:49.853Z,57.73
2019-02-17T08:50:51.553Z,58.67
2019-02-17T08:52:53.481Z,57.90
2019-02-17T08:54:55.262Z,51.90
2019-02-17T08:56:57.082Z,61.07
2019-02-17T08:58:58.938Z,53.67
2019-02-17T09:01:00.852Z,64.83
2019-02-17T09:03:02.618Z,53.47
2019-02-17T09:05:04.563Z,52.43
2019-02-17T09:07:06.523Z,52.90
2019-02-17T09:09:08.464Z,58.97
2019-02-17T09:11:10.222Z,58.40
2019-02-17T09:13:11.941Z,53.20
2019-02-17T09:15:13.664Z,52.00
2019-02-17T09:17:15.649Z,54.10
2019-02-17T09:19:17.344Z,50.80
2019-02-17T09:21:19.053Z,54.83
2019-02-17T09:23:21.123Z,52.70
2019-02-17T09:25:22.825Z,51.40
2019-02-17T09:27:24.539Z,53.77
2019-02-17T09:29:26.255Z,53.63
2019-02-17T09:31:27.954Z,57.30
2019-02-17T09:33:29.648Z,54.13
2019-02-17T09:35:31.413Z,52.50
2019-02-17T09:37:33.124Z,52.20
2019-02-17T09:39:34.849Z,48.20
2019-02-17T09:41:37.418Z,46.47
2019-02-17T09:43:39.132Z,54.70
2019-02-17T09:45:40.860Z,55.07
2019-02-17T09:47:42.581Z,48.57
2019-02-17T09:49:44.337Z,56.43
2019-02-17T09:51:46.389Z,51.93
2019-02-17T09:53:48.089Z,56.40
2019-02-17T09:55:49.796Z,57.87
2019-02-17T09:57:51.518Z,54.90
2019-02-17T09:59:53.221Z,56.27
2019-02-17T10:01:55.044Z,56.03
2019-02-17T10:03:56.787Z,55.20
2019-02-17T10:05:58.536Z,55.97
2019-02-17T10:08:00.239Z,57.27
2019-02-17T10:10:02.677Z,56.67
2019-02-17T10:12:04.839Z,57.07
2019-02-17T10:14:06.529Z,66.23
2019-02-17T10:16:08.237Z,61.63
2019-02-17T10:18:09.944Z,55.27
2019-02-17T10:20:11.904Z,54.67
2019-02-17T10:22:13.726Z,53.77
2019-02-17T10:24:15.477Z,58.40
2019-02-17T10:26:17.548Z,57.87
2019-02-17T10:28:19.269Z,52.70
2019-02-17T10:30:21.188Z,52.30
2019-02-17T10:32:22.900Z,60.60
2019-02-17T10:34:24.653Z,51.87
2019-02-17T10:36:26.418Z,53.47
2019-02-17T10:38:28.226Z,53.80
2019-02-17T10:40:29.941Z,54.70
2019-02-17T10:42:31.651Z,54.97
2019-02-17T10:44:33.343Z,51.87
2019-02-17T10:46:35.079Z,47.00
2019-02-17T10:48:36.789Z,49.00
2019-02-17T10:50:38.513Z,48.40
2019-02-17T10:52:40.462Z,50.37
2019-02-17T10:54:42.173Z,52.20
2019-02-17T10:56:43.940Z,46.80
2019-02-17T10:58:45.668Z,46.40
2019-02-17T11:00:47.424Z,50.70
2019-02-17T11:02:49.339Z,49.30
2019-02-17T11:04:51.089Z,47.17
2019-02-17T11:06:52.884Z,46.37
2019-02-17T11:08:54.688Z,48.20
2019-02-17T11:10:56.527Z,50.53
2019-02-17T11:12:58.257Z,48.17
2019-02-17T11:15:00.365Z,47.70
2019-02-17T11:17:02.157Z,46.67
2019-02-17T11:19:03.869Z,46.40
2019-02-17T11:21:05.693Z,45.77
2019-02-17T11:23:07.514Z,46.93
2019-02-17T11:25:09.432Z,44.67
2019-02-17T11:27:11.166Z,46.40
2019-02-17T11:29:12.977Z,46.60
2019-02-17T11:31:15.095Z,45.37
2019-02-17T11:33:16.829Z,47.10
2019-02-17T11:35:18.530Z,45.77
2019-02-17T11:37:22.761Z,43.33
2019-02-17T11:39:24.513Z,44.23
2019-02-17T11:41:26.226Z,43.67
2019-02-17T11:43:28.037Z,46.63
2019-02-17T11:45:32.857Z,48.53
2019-02-17T11:47:34.581Z,45.47
2019-02-17T11:49:36.508Z,42.87
2019-02-17T11:51:38.262Z,38.80
2019-02-17T11:53:40.131Z,41.80
2019-02-17T11:55:42.225Z,40.87
2019-02-17T11:57:43.934Z,39.63
2019-02-17T11:59:45.697Z,38.00
2019-02-17T12:01:47.457Z,40.53
2019-02-17T12:03:49.272Z,37.40
2019-02-17T12:05:51.226Z,37.10
2019-02-17T12:07:52.954Z,38.43
2019-02-17T12:09:55.024Z,37.90
2019-02-17T12:11:56.922Z,34.87
2019-02-17T12:14:18.318Z,39.43
2019-02-17T12:16:20.005Z,36.83
2019-02-17T12:18:21.743Z,36.13
2019-02-17T12:20:52.138Z,38.80
2019-02-17T12:22:58.924Z,34.77
2019-02-17T12:25:11.437Z,35.87
2019-02-17T12:27:32.681Z,34.10
2019-02-17T12:29:40.067Z,35.83
2019-02-17T12:31:41.981Z,34.47
2019-02-17T12:33:43.692Z,34.57
2019-02-17T12:35:45.409Z,34.10
2019-02-17T12:37:47.480Z,35.43
2019-02-17T12:39:49.601Z,32.83
2019-02-17T12:41:51.284Z,33.57
2019-02-17T12:43:53.280Z,35.50
2019-02-17T12:45:55.045Z,34.70
2019-02-17T12:47:58.549Z,31.23
2019-02-17T12:50:00.527Z,30.93
2019-02-17T12:52:02.862Z,32.90
2019-02-17T12:54:04.693Z,31.13
2019-02-17T13:09:11.559Z,34.97
2019-02-17T13:11:13.379Z,29.10
2019-02-17T13:13:15.073Z,31.70
2019-02-17T13:15:17.082Z,28.50
2019-02-17T13:17:18.788Z,29.97
2019-02-17T13:19:20.481Z,30.67
2019-02-17T13:21:22.238Z,32.13
2019-02-17T13:23:23.954Z,28.97
2019-02-17T13:25:25.659Z,30.73
2019-02-17T13:27:27.758Z,32.13
2019-02-17T13:29:29.461Z,30.17
2019-02-17T13:31:31.165Z,29.70
2019-02-17T13:33:39.117Z,32.57
2019-02-17T13:35:36.513Z,29.40
2019-02-17T13:37:38.241Z,30.80
2019-02-17T13:39:40.084Z,28.60
2019-02-17T13:41:41.887Z,33.00
2019-02-17T13:43:43.585Z,30.07
2019-02-17T13:45:45.312Z,31.97
2019-02-17T13:47:47.084Z,32.50
2019-02-17T13:49:48.864Z,30.20
2019-02-17T13:51:50.560Z,28.43
2019-02-17T13:53:52.337Z,28.33
2019-02-17T13:55:54.032Z,30.83
2019-02-17T13:57:55.796Z,27.93
2019-02-17T13:59:57.493Z,28.90
2019-02-17T14:01:59.308Z,29.73
2019-02-17T14:04:01.203Z,26.20
2019-02-17T14:06:03.120Z,26.30
2019-02-17T14:08:04.833Z,28.13
2019-02-17T14:10:08.022Z,26.10
2019-02-17T14:12:09.832Z,30.13
2019-02-17T14:14:11.527Z,26.93
2019-02-17T14:16:13.237Z,40.20
2019-02-17T14:18:14.936Z,30.57
2019-02-17T14:20:16.905Z,31.07
2019-02-17T14:22:18.636Z,25.70
2019-02-17T14:24:20.609Z,28.37
2019-02-17T14:26:22.313Z,33.67
2019-02-17T14:28:24.007Z,27.87
2019-02-17T14:30:25.734Z,27.00
2019-02-17T14:32:27.440Z,30.70
2019-02-17T14:34:29.145Z,25.30
2019-02-17T14:36:30.924Z,29.10
2019-02-17T14:38:32.629Z,27.37
2019-02-17T14:40:34.347Z,28.10
2019-02-17T14:42:36.068Z,28.37
2019-02-17T14:44:37.770Z,26.70
2019-02-17T14:46:39.588Z,32.10
2019-02-17T14:48:41.304Z,30.90
2019-02-17T14:50:43.109Z,29.87
2019-02-17T14:52:44.816Z,25.30
2019-02-17T14:54:46.616Z,25.80
2019-02-17T14:56:48.312Z,27.80
2019-02-17T14:58:50.031Z,28.00
2019-02-17T15:00:51.785Z,23.03
2019-02-17T15:02:53.476Z,28.20
2019-02-17T15:04:55.186Z,26.03
2019-02-17T15:06:56.909Z,27.10
2019-02-17T15:08:58.599Z,26.27
2019-02-17T15:11:00.288Z,26.77
2019-02-17T15:13:02.028Z,28.40
2019-02-17T15:15:04.248Z,27.37
2019-02-17T15:17:05.945Z,30.60
2019-02-17T15:19:07.720Z,28.27
2019-02-17T15:21:09.707Z,28.50
2019-02-17T15:23:11.603Z,29.87
2019-02-17T15:25:13.630Z,27.97
2019-02-17T15:27:15.714Z,29.90
2019-02-17T15:29:17.395Z,37.23
2019-02-17T15:31:19.205Z,26.60
2019-02-17T15:33:21.292Z,27.80
2019-02-17T15:35:23.033Z,24.97
2019-02-17T15:37:24.808Z,30.30
2019-02-17T15:39:26.504Z,31.67
2019-02-17T15:41:28.343Z,29.57
2019-02-17T15:43:30.239Z,26.37
2019-02-17T15:45:32.089Z,32.77
2019-02-17T15:47:33.965Z,27.07
2019-02-17T15:49:35.869Z,29.00
2019-02-17T15:51:37.804Z,26.60
2019-02-17T15:53:39.518Z,34.80
2019-02-17T15:55:41.320Z,27.43
2019-02-17T15:57:43.039Z,29.57
2019-02-17T15:59:44.783Z,30.23
2019-02-17T16:01:46.649Z,31.43
2019-02-17T16:03:48.394Z,30.90
2019-02-17T16:05:50.279Z,29.50
2019-02-17T16:07:52.144Z,26.93
2019-02-17T16:09:53.909Z,28.37
2019-02-17T16:11:55.648Z,30.13
2019-02-17T16:13:57.359Z,32.37
2019-02-17T16:16:18.893Z,29.90
2019-02-17T16:18:20.628Z,29.57
2019-02-17T16:20:22.468Z,28.37
2019-02-17T16:22:24.224Z,29.77
2019-02-17T16:24:34.560Z,31.47
2019-02-17T16:26:36.400Z,34.37
2019-02-17T16:28:38.118Z,32.70
2019-02-17T16:30:39.840Z,31.77
2019-02-17T16:32:41.599Z,30.07
2019-02-17T16:34:43.304Z,32.57
2019-02-17T16:36:45.017Z,28.50
2019-02-17T16:38:46.832Z,26.00
2019-02-17T16:40:48.606Z,31.27
2019-02-17T16:42:50.362Z,41.20
2019-02-17T16:44:52.189Z,72.73
2019-02-17T16:46:53.992Z,48.97
2019-02-17T16:48:55.725Z,38.03
2019-02-17T16:50:57.552Z,39.33
2019-02-17T16:52:59.608Z,41.30
2019-02-17T16:55:01.310Z,37.83
2019-02-17T16:57:03.302Z,39.23
2019-02-17T16:59:04.995Z,37.90
2019-02-17T17:01:06.897Z,32.30
2019-02-17T17:03:08.893Z,39.20
2019-02-17T17:05:10.829Z,35.70
2019-02-17T17:07:12.869Z,36.77
2019-02-17T17:09:14.813Z,36.80
2019-02-17T17:11:16.512Z,33.77
2019-02-17T17:13:18.444Z,42.57
2019-02-17T17:15:20.241Z,39.27
2019-02-17T17:17:21.945Z,47.27
2019-02-17T17:19:23.771Z,42.90
2019-02-17T17:21:25.464Z,40.77
2019-02-17T17:23:29.379Z,36.03
2019-02-17T17:25:31.332Z,35.77
2019-02-17T17:27:33.156Z,35.67
2019-02-17T17:29:34.897Z,36.17
2019-02-17T17:31:39.229Z,40.00
2019-02-17T17:33:41.937Z,32.47
2019-02-17T17:35:44.372Z,34.50
2019-02-17T17:37:46.178Z,36.13
2019-02-17T17:39:48.134Z,35.87
2019-02-17T17:41:49.945Z,40.40
2019-02-17T17:43:54.554Z,34.87
2019-02-17T17:45:56.286Z,39.13
2019-02-17T17:47:58.331Z,35.57
2019-02-17T17:50:00.061Z,40.60
2019-02-17T17:52:01.852Z,35.97
2019-02-17T17:54:03.670Z,41.70
2019-02-17T17:56:09.509Z,41.30
2019-02-17T17:58:12.217Z,39.70
2019-02-17T18:00:16.362Z,35.43
2019-02-17T18:02:18.224Z,39.37
2019-02-17T18:04:20.618Z,38.93
2019-02-17T18:06:22.445Z,40.27
2019-02-17T18:08:24.185Z,38.97
2019-02-17T18:10:26.034Z,38.57
2019-02-17T18:12:28.190Z,43.23
2019-02-17T18:14:29.990Z,36.13
2019-02-17T18:16:31.697Z,40.43
2019-02-17T18:18:34.083Z,41.50
2019-02-17T18:20:35.817Z,42.10
2019-02-17T18:22:37.709Z,39.13
2019-02-17T18:24:39.449Z,45.40
2019-02-17T18:26:41.682Z,37.80
2019-02-17T18:28:43.493Z,42.50
2019-02-17T18:30:45.717Z,40.63
2019-02-17T18:32:47.613Z,43.77
2019-02-17T18:34:49.322Z,42.70
2019-02-17T18:36:51.022Z,42.40
2019-02-17T18:38:53.766Z,43.40
2019-02-17T18:40:55.694Z,43.27
2019-02-17T18:42:57.478Z,54.90
2019-02-17T18:44:59.172Z,40.37
2019-02-17T18:47:02.003Z,44.93
2019-02-17T18:49:03.925Z,40.00
2019-02-17T18:51:05.688Z,42.53
2019-02-17T18:53:07.390Z,44.63
2019-02-17T18:55:09.961Z,43.30
2019-02-17T18:57:12.329Z,44.67
2019-02-17T18:59:14.133Z,38.70
2019-02-17T19:01:17.837Z,44.90
2019-02-17T19:03:19.580Z,45.77
2019-02-17T19:05:31.076Z,37.50
2019-02-17T19:07:25.199Z,44.23
2019-02-17T19:09:27.310Z,38.10
2019-02-17T19:11:29.060Z,39.20
2019-02-17T19:13:31.097Z,39.00
2019-02-17T19:15:32.797Z,40.33
2019-02-17T19:17:34.697Z,39.10
2019-02-17T19:19:36.603Z,39.57
2019-02-17T19:21:38.309Z,36.90
2019-02-17T19:23:40.018Z,35.97
2019-02-17T19:25:41.716Z,38.80
2019-02-17T19:27:46.981Z,37.53
2019-02-17T19:29:48.673Z,40.53
2019-02-17T19:31:50.834Z,38.30
2019-02-17T19:33:52.556Z,38.17
2019-02-17T19:35:59.741Z,37.83
2019-02-17T19:38:01.566Z,38.93
2019-02-17T19:40:04.135Z,39.33
2019-02-17T19:42:05.831Z,36.97
2019-02-17T19:44:07.534Z,38.57
2019-02-17T19:46:12.515Z,47.30
2019-02-17T19:48:14.205Z,41.13
2019-02-17T19:50:16.031Z,43.40
2019-02-17T19:52:17.841Z,37.77
2019-02-17T19:54:19.651Z,42.60
2019-02-17T19:56:22.770Z,38.77
2019-02-17T19:58:24.761Z,43.13
2019-02-17T20:00:26.594Z,39.97
2019-02-17T20:02:45.980Z,41.07
2019-02-17T20:05:04.933Z,39.73
2019-02-17T20:07:09.256Z,39.90
2019-02-17T20:09:19.684Z,40.53
2019-02-17T20:11:21.597Z,36.63
2019-02-17T20:13:23.742Z,36.33
2019-02-17T20:15:28.599Z,37.77
2019-02-17T20:17:30.418Z,37.80
2019-02-17T20:19:32.113Z,38.37
2019-02-17T20:21:36.525Z,38.20
2019-02-17T20:23:38.432Z,38.50
2019-02-17T20:25:41.838Z,36.90
2019-02-17T20:27:44.052Z,40.27
2019-02-17T20:29:45.889Z,41.60
2019-02-17T20:31:47.586Z,34.80
2019-02-17T20:33:49.397Z,42.67
2019-02-17T20:36:02.114Z,38.00
2019-02-17T20:37:55.496Z,40.47
2019-02-17T20:39:57.219Z,40.80
2019-02-17T20:41:58.933Z,42.50
2019-02-17T20:44:00.645Z,38.30
2019-02-17T20:46:02.670Z,39.20
2019-02-17T20:48:04.412Z,38.30
2019-02-17T20:50:06.344Z,37.83
2019-02-17T20:52:10.568Z,37.07
2019-02-17T20:54:12.301Z,40.00
2019-02-17T20:56:14.012Z,44.83
2019-02-17T20:58:15.843Z,39.73
2019-02-17T21:00:18.967Z,40.20
2019-02-17T21:02:23.829Z,38.73
2019-02-17T21:04:25.549Z,38.90
2019-02-17T21:06:27.278Z,39.87
2019-02-17T21:08:28.977Z,37.53
2019-02-17T21:10:31.089Z,39.73
2019-02-17T21:12:34.780Z,44.17
2019-02-17T21:14:36.652Z,41.30
2019-02-17T21:16:38.498Z,36.50
2019-02-17T21:18:40.224Z,38.60
2019-02-17T21:20:42.025Z,43.17
2019-02-17T21:22:43.822Z,41.00
2019-02-17T21:24:45.657Z,43.63
2019-02-17T21:26:47.399Z,42.63
2019-02-17T21:28:49.113Z,42.40
2019-02-17T21:30:50.857Z,41.17
2019-02-17T21:32:52.554Z,40.73
2019-02-17T21:34:54.541Z,37.83
2019-02-17T21:36:56.417Z,37.90
2019-02-17T21:38:58.837Z,37.70
2019-02-17T21:41:09.008Z,42.20
2019-02-17T21:43:04.402Z,45.03
2019-02-17T21:45:07.883Z,39.37
2019-02-17T21:47:09.589Z,41.50
2019-02-17T21:49:11.321Z,36.30
2019-02-17T21:51:13.056Z,40.90
2019-02-17T21:53:20.474Z,38.70
2019-02-17T21:55:18.653Z,37.97
2019-02-17T21:57:20.460Z,37.87
2019-02-17T21:59:22.164Z,40.10
2019-02-17T22:01:23.964Z,41.27
2019-02-17T22:03:25.830Z,39.03
2019-02-17T22:05:27.532Z,40.47
2019-02-17T22:07:29.411Z,39.00
2019-02-17T22:09:31.121Z,40.07
2019-02-17T22:11:33.238Z,38.07
2019-02-17T22:13:35.409Z,42.70
2019-02-17T22:15:37.132Z,36.57
2019-02-17T22:17:38.846Z,46.70
2019-02-17T22:19:40.830Z,38.57
2019-02-17T22:21:42.550Z,40.03
2019-02-17T22:23:44.249Z,39.67
2019-02-17T22:25:46.193Z,42.87
2019-02-17T22:27:47.894Z,39.70
2019-02-17T22:30:09.719Z,37.97
2019-02-17T22:32:11.449Z,36.30
2019-02-17T22:34:13.164Z,38.20
2019-02-17T22:36:14.898Z,38.90
2019-02-17T22:38:16.660Z,41.23
2019-02-17T22:40:18.377Z,39.47
2019-02-17T22:42:20.130Z,40.73
2019-02-17T22:44:21.869Z,37.27
2019-02-17T22:46:23.589Z,39.03
2019-02-17T22:48:25.293Z,44.00
2019-02-17T22:50:27.062Z,39.80
2019-02-17T22:52:28.780Z,43.53
2019-02-17T22:54:30.500Z,42.00
2019-02-17T22:56:32.242Z,41.80
2019-02-17T22:58:33.961Z,36.97
2019-02-17T23:00:55.116Z,39.33
2019-02-17T23:02:57.063Z,44.93
2019-02-17T23:04:58.876Z,42.27
2019-02-17T23:07:00.692Z,42.80
2019-02-17T23:09:04.457Z,38.30
2019-02-17T23:11:06.176Z,41.17
2019-02-17T23:13:07.881Z,37.77
2019-02-17T23:15:10.237Z,40.80
2019-02-17T23:17:11.958Z,44.87
2019-02-17T23:19:13.681Z,37.37
2019-02-17T23:21:15.512Z,38.00
2019-02-17T23:23:17.225Z,45.37
2019-02-17T23:25:19.561Z,43.47
2019-02-17T23:27:21.310Z,39.40
2019-02-17T23:29:23.129Z,37.10
2019-02-17T23:31:24.976Z,41.40
2019-02-17T23:33:26.723Z,33.80
2019-02-17T23:35:28.553Z,43.07
2019-02-17T23:37:30.362Z,38.73
2019-02-17T23:39:32.091Z,38.30
2019-02-17T23:41:33.837Z,39.37
2019-02-17T23:43:35.845Z,38.47
2019-02-17T23:45:37.556Z,42.90
2019-02-17T23:47:39.417Z,40.07
2019-02-17T23:49:41.239Z,36.63
2019-02-17T23:51:42.980Z,38.02
2019-02-17T23:53:44.847Z,33.80
2019-02-17T23:55:46.830Z,37.23
2019-02-17T23:57:48.665Z,40.10
2019-02-17T23:59:50.424Z,35.40
